createdAt,value
2019-05-05T00:02:06.264Z,52.91
2019-05-05T00:04:32.291Z,52.79
2019-05-05T00:06:58.293Z,52.77
2019-05-05T00:09:25.217Z,52.77
2019-05-05T00:11:50.313Z,52.78
2019-05-05T00:14:16.309Z,52.76
2019-05-05T00:16:44.377Z,52.81
2019-05-05T00:19:08.323Z,52.84
2019-05-05T00:21:34.415Z,52.72
2019-05-05T00:24:00.362Z,52.82
2019-05-05T00:26:26.368Z,52.77
2019-05-05T00:28:52.387Z,52.74
2019-05-05T00:31:18.383Z,52.68
2019-05-05T00:33:44.954Z,52.79
2019-05-05T00:36:10.407Z,52.75
2019-05-05T00:38:36.417Z,52.72
2019-05-05T00:41:02.432Z,52.70
2019-05-05T00:43:28.426Z,52.67
2019-05-05T00:45:55.654Z,52.73
2019-05-05T00:48:20.462Z,52.62
2019-05-05T00:50:46.481Z,52.66
2019-05-05T00:53:14.415Z,52.65
2019-05-05T00:55:38.491Z,52.62
2019-05-05T00:58:05.230Z,52.64
2019-05-05T01:00:30.509Z,52.70
2019-05-05T01:02:56.526Z,52.60
2019-05-05T01:05:22.528Z,52.59
2019-05-05T01:07:48.542Z,52.59
2019-05-05T01:10:14.540Z,52.71
2019-05-05T01:12:40.535Z,52.56
2019-05-05T01:15:06.554Z,52.59
2019-05-05T01:17:34.394Z,52.59
2019-05-05T01:20:03.269Z,52.54
2019-05-05T01:22:25.083Z,52.55
2019-05-05T01:24:50.591Z,52.53
2019-05-05T01:27:16.588Z,52.50
2019-05-05T01:29:42.600Z,52.54
2019-05-05T01:32:08.628Z,52.63
2019-05-05T01:34:34.921Z,52.51
2019-05-05T01:37:00.639Z,52.55
2019-05-05T01:39:26.643Z,52.52
2019-05-05T01:41:54.273Z,52.58
2019-05-05T01:44:18.661Z,52.53
2019-05-05T01:46:44.661Z,52.49
2019-05-05T01:49:10.670Z,52.52
2019-05-05T01:51:36.686Z,52.48
2019-05-05T01:54:02.676Z,52.51
2019-05-05T01:56:28.698Z,52.46
2019-05-05T01:58:54.886Z,52.46
2019-05-05T02:01:20.714Z,52.49
2019-05-05T02:03:46.703Z,52.45
2019-05-05T02:06:14.217Z,52.48
2019-05-05T02:08:38.710Z,52.49
2019-05-05T02:11:05.309Z,52.46
2019-05-05T02:13:30.734Z,52.55
2019-05-05T02:15:56.731Z,52.42
2019-05-05T02:18:22.745Z,52.44
2019-05-05T02:20:48.742Z,52.44
2019-05-05T02:23:15.157Z,52.51
2019-05-05T02:25:40.763Z,52.53
2019-05-05T02:28:06.777Z,52.48
2019-05-05T02:30:35.758Z,52.41
2019-05-05T02:32:58.783Z,52.43
2019-05-05T02:35:25.774Z,52.42
2019-05-05T02:37:50.792Z,52.38
2019-05-05T02:40:16.809Z,52.39
2019-05-05T02:42:44.924Z,52.42
2019-05-05T02:45:08.813Z,52.46
2019-05-05T02:47:35.041Z,52.40
2019-05-05T02:50:00.807Z,52.40
2019-05-05T02:52:26.821Z,52.40
2019-05-05T02:54:53.643Z,52.38
2019-05-05T02:57:18.828Z,52.39
2019-05-05T02:59:44.844Z,52.46
2019-05-05T03:02:10.847Z,52.34
2019-05-05T03:04:36.867Z,52.37
2019-05-05T03:07:04.635Z,52.37
2019-05-05T03:09:28.859Z,52.35
2019-05-05T03:11:54.883Z,52.33
2019-05-05T03:14:20.870Z,52.37
2019-05-05T03:16:46.896Z,52.33
2019-05-05T03:19:14.271Z,52.34
2019-05-05T03:21:38.919Z,52.35
2019-05-05T03:24:04.917Z,52.32
2019-05-05T03:26:30.942Z,52.32
2019-05-05T03:28:56.959Z,52.33
2019-05-05T03:31:26.017Z,52.32
2019-05-05T03:33:48.976Z,52.34
2019-05-05T03:36:14.971Z,52.31
2019-05-05T03:38:41.001Z,52.32
2019-05-05T03:41:06.992Z,52.29
2019-05-05T03:43:34.225Z,52.32
2019-05-05T03:45:59.010Z,52.29
2019-05-05T03:48:25.028Z,52.26
2019-05-05T03:50:51.041Z,52.27
2019-05-05T03:53:17.044Z,52.34
2019-05-05T03:55:43.962Z,52.28
2019-05-05T03:58:09.055Z,52.30
2019-05-05T04:00:35.074Z,52.30
2019-05-05T04:03:01.071Z,52.26
2019-05-05T04:05:27.084Z,52.24
2019-05-05T04:07:54.529Z,52.25
2019-05-05T04:10:19.094Z,52.50
2019-05-05T04:12:45.121Z,52.53
2019-05-05T04:15:11.123Z,52.60
2019-05-05T04:17:37.132Z,52.65
2019-05-05T04:20:03.846Z,52.55
2019-05-05T04:22:29.142Z,52.44
2019-05-05T04:24:55.157Z,52.47
2019-05-05T04:27:21.181Z,52.50
2019-05-05T04:29:47.278Z,52.73
2019-05-05T04:32:14.039Z,52.67
2019-05-05T04:34:39.294Z,52.81
2019-05-05T04:37:05.499Z,52.62
2019-05-05T04:39:31.470Z,52.73
2019-05-05T04:41:57.502Z,52.92
2019-05-05T04:44:23.709Z,52.76
2019-05-05T04:46:49.498Z,52.68
2019-05-05T04:49:15.518Z,52.55
2019-05-05T04:51:47.654Z,52.47
2019-05-05T04:54:07.539Z,52.54
2019-05-05T04:56:34.357Z,53.21
2019-05-05T04:58:59.573Z,53.29
2019-05-05T05:01:26.327Z,53.66
2019-05-05T05:03:54.203Z,53.84
2019-05-05T05:06:18.321Z,53.49
2019-05-05T05:08:44.498Z,53.78
2019-05-05T05:11:10.346Z,53.01
2019-05-05T05:13:36.368Z,53.22
2019-05-05T05:16:04.394Z,54.00
2019-05-05T05:18:28.380Z,54.25
2019-05-05T05:20:54.956Z,53.76
2019-05-05T05:23:20.394Z,53.89
2019-05-05T05:25:46.413Z,54.44
2019-05-05T05:28:14.154Z,54.10
2019-05-05T05:30:38.430Z,54.06
2019-05-05T05:33:04.517Z,54.08
2019-05-05T05:35:30.429Z,54.37
2019-05-05T05:37:57.760Z,54.57
2019-05-05T05:40:23.646Z,54.40
2019-05-05T05:42:48.513Z,54.21
2019-05-05T05:45:14.663Z,54.73
2019-05-05T05:47:40.553Z,54.51
2019-05-05T05:50:06.594Z,54.26
2019-05-05T05:52:34.395Z,53.87
2019-05-05T05:54:58.618Z,53.96
2019-05-05T05:57:24.616Z,53.74
2019-05-05T05:59:50.635Z,54.02
2019-05-05T06:02:16.623Z,53.78
2019-05-05T06:04:44.445Z,54.06
2019-05-05T06:07:08.668Z,53.88
2019-05-05T06:09:34.709Z,53.85
2019-05-05T06:12:00.742Z,53.93
2019-05-05T06:14:27.192Z,54.05
2019-05-05T06:16:54.038Z,54.18
2019-05-05T06:19:19.991Z,53.88
2019-05-05T06:21:46.017Z,54.21
2019-05-05T06:24:13.642Z,54.11
2019-05-05T06:26:38.044Z,54.71
2019-05-05T06:29:04.484Z,54.24
2019-05-05T06:31:30.057Z,54.42
2019-05-05T06:33:56.080Z,54.77
2019-05-05T06:36:23.435Z,54.64
2019-05-05T06:38:48.125Z,55.02
2019-05-05T06:41:14.700Z,55.16
2019-05-05T06:43:40.205Z,55.42
2019-05-05T06:46:06.230Z,55.15
2019-05-05T06:48:34.231Z,55.03
2019-05-05T06:50:58.253Z,54.70
2019-05-05T06:53:24.288Z,55.48
2019-05-05T06:55:51.801Z,55.29
2019-05-05T06:58:16.309Z,55.68
2019-05-05T07:00:44.072Z,55.25
2019-05-05T07:03:08.717Z,55.52
2019-05-05T07:05:35.592Z,55.67
2019-05-05T07:08:01.583Z,55.51
2019-05-05T07:10:27.602Z,56.22
2019-05-05T07:12:54.353Z,56.12
2019-05-05T07:15:19.621Z,56.41
2019-05-05T07:17:45.748Z,56.13
2019-05-05T07:20:13.597Z,56.21
2019-05-05T07:22:37.978Z,56.74
2019-05-05T07:25:04.737Z,56.50
2019-05-05T07:27:29.982Z,57.01
2019-05-05T07:29:56.139Z,56.74
2019-05-05T07:32:24.313Z,57.30
2019-05-05T07:34:48.334Z,56.04
2019-05-05T07:37:14.628Z,56.49
2019-05-05T07:39:40.649Z,56.68
2019-05-05T07:42:06.678Z,56.98
2019-05-05T07:44:33.914Z,56.52
2019-05-05T07:46:58.743Z,56.93
2019-05-05T07:49:24.789Z,57.18
2019-05-05T07:51:50.821Z,56.84
2019-05-05T07:54:16.814Z,57.00
2019-05-05T07:56:44.416Z,56.73
2019-05-05T07:59:09.178Z,56.49
2019-05-05T08:01:35.195Z,57.13
2019-05-05T08:04:01.232Z,56.56
2019-05-05T08:06:27.245Z,56.49
2019-05-05T08:08:54.582Z,56.59
2019-05-05T08:11:19.239Z,56.73
2019-05-05T08:13:45.269Z,56.73
2019-05-05T08:16:11.275Z,57.11
2019-05-05T08:18:37.318Z,56.84
2019-05-05T08:21:04.295Z,56.73
2019-05-05T08:23:32.628Z,56.17
2019-05-05T08:25:55.487Z,56.81
2019-05-05T08:28:23.541Z,56.13
2019-05-05T08:30:47.504Z,56.56
2019-05-05T08:33:14.082Z,57.35
2019-05-05T08:35:39.535Z,56.53
2019-05-05T08:38:05.541Z,56.51
2019-05-05T08:40:31.542Z,56.89
2019-05-05T08:42:57.640Z,56.46
2019-05-05T08:45:26.544Z,56.90
2019-05-05T08:47:49.686Z,56.26
2019-05-05T08:50:15.705Z,56.83
2019-05-05T08:52:41.717Z,56.09
2019-05-05T08:55:07.911Z,56.79
2019-05-05T08:57:34.189Z,56.47
2019-05-05T09:00:00.588Z,56.58
2019-05-05T09:02:26.668Z,56.32
2019-05-05T09:04:53.790Z,56.23
2019-05-05T09:07:18.842Z,56.40
2019-05-05T09:09:44.873Z,56.26
2019-05-05T09:12:10.882Z,55.78
2019-05-05T09:14:37.114Z,55.73
2019-05-05T09:17:04.431Z,55.67
2019-05-05T09:19:29.127Z,56.15
2019-05-05T09:21:55.160Z,55.89
2019-05-05T09:24:21.209Z,55.75
2019-05-05T09:26:47.271Z,56.32
2019-05-05T09:29:13.732Z,55.75
2019-05-05T09:31:39.289Z,55.77
2019-05-05T09:34:05.321Z,55.76
2019-05-05T09:36:31.332Z,56.67
2019-05-05T09:38:57.343Z,56.51
2019-05-05T09:41:23.598Z,56.15
2019-05-05T09:43:49.451Z,56.67
2019-05-05T09:46:15.466Z,56.48
2019-05-05T09:48:41.463Z,56.72
2019-05-05T09:51:07.485Z,57.15
2019-05-05T09:53:34.513Z,57.17
2019-05-05T09:55:59.496Z,57.08
2019-05-05T09:58:25.633Z,56.70
2019-05-05T10:00:51.631Z,56.82
2019-05-05T10:03:17.650Z,57.05
2019-05-05T10:05:43.668Z,57.15
2019-05-05T10:08:09.664Z,56.25
2019-05-05T10:10:35.682Z,56.10
2019-05-05T10:13:03.975Z,56.19
2019-05-05T10:15:27.803Z,56.42
2019-05-05T10:17:54.410Z,56.21
2019-05-05T10:20:20.461Z,56.87
2019-05-05T10:22:46.489Z,56.34
2019-05-05T10:25:12.488Z,57.06
2019-05-05T10:27:44.950Z,56.66
2019-05-05T10:30:05.014Z,56.96
2019-05-05T10:32:31.047Z,56.05
2019-05-05T10:34:57.053Z,56.15
2019-05-05T10:37:23.510Z,56.85
2019-05-05T10:39:49.295Z,56.10
2019-05-05T10:42:15.433Z,56.37
2019-05-05T10:44:41.472Z,56.17
2019-05-05T10:47:07.524Z,56.09
2019-05-05T10:52:11.664Z,55.64
2019-05-05T10:54:43.998Z,56.24
2019-05-05T10:57:04.184Z,55.92
2019-05-05T10:59:29.692Z,56.40
2019-05-05T11:01:55.796Z,56.06
2019-05-05T11:04:21.822Z,56.30
2019-05-05T11:06:47.852Z,56.20
2019-05-05T11:09:14.048Z,55.57
2019-05-05T11:11:39.938Z,56.15
2019-05-05T11:14:05.966Z,55.58
2019-05-05T11:16:32.036Z,55.89
2019-05-05T11:18:58.066Z,55.40
2019-05-05T11:21:24.107Z,55.32
2019-05-05T11:23:50.107Z,55.22
2019-05-05T11:26:16.292Z,55.31
2019-05-05T11:28:44.380Z,55.09
2019-05-05T11:31:08.326Z,55.48
2019-05-05T11:33:34.606Z,55.15
2019-05-05T11:36:00.336Z,55.28
2019-05-05T11:38:26.358Z,55.12
2019-05-05T11:40:54.474Z,54.82
2019-05-05T11:43:18.464Z,55.20
2019-05-05T11:45:44.488Z,55.05
2019-05-05T11:48:10.608Z,55.20
2019-05-05T11:50:36.590Z,54.86
2019-05-05T11:53:03.917Z,54.72
2019-05-05T11:55:28.662Z,55.01
2019-05-05T11:57:57.569Z,54.55
2019-05-05T12:00:20.763Z,54.76
2019-05-05T12:02:46.788Z,54.66
2019-05-05T12:05:14.089Z,54.71
2019-05-05T12:07:38.893Z,54.96
2019-05-05T12:10:04.908Z,54.59
2019-05-05T12:12:30.951Z,54.61
2019-05-05T12:14:57.028Z,54.65
2019-05-05T12:17:24.294Z,54.69
2019-05-05T12:19:49.183Z,54.67
2019-05-05T12:22:15.281Z,54.81
2019-05-05T12:24:41.279Z,54.73
2019-05-05T12:27:07.282Z,54.46
2019-05-05T12:29:33.749Z,54.54
2019-05-05T12:31:59.500Z,54.44
2019-05-05T12:34:25.533Z,54.61
2019-05-05T12:36:53.757Z,54.30
2019-05-05T12:39:17.709Z,54.64
2019-05-05T12:41:43.745Z,54.41
2019-05-05T12:44:09.785Z,54.25
2019-05-05T12:46:35.810Z,54.37
2019-05-05T12:49:01.808Z,54.52
2019-05-05T12:51:27.897Z,54.20
2019-05-05T12:53:54.069Z,54.54
2019-05-05T12:56:19.949Z,54.34
2019-05-05T12:58:45.972Z,54.48
2019-05-05T13:01:14.145Z,54.45
2019-05-05T13:03:38.022Z,54.14
2019-05-05T13:06:04.190Z,54.10
2019-05-05T13:08:30.080Z,54.14
2019-05-05T13:10:56.092Z,54.38
2019-05-05T13:13:22.155Z,54.09
2019-05-05T13:15:48.201Z,54.05
2019-05-05T13:18:14.200Z,54.33
2019-05-05T13:20:40.218Z,54.14
2019-05-05T13:23:06.281Z,54.03
2019-05-05T13:25:33.628Z,54.04
2019-05-05T13:27:58.332Z,54.23
2019-05-05T13:30:24.338Z,54.24
2019-05-05T13:32:50.348Z,54.25
2019-05-05T13:35:16.383Z,53.96
2019-05-05T13:37:44.345Z,54.09
2019-05-05T13:40:08.470Z,53.96
2019-05-05T13:42:34.477Z,54.24
2019-05-05T13:45:00.553Z,54.08
2019-05-05T13:47:26.565Z,54.08
2019-05-05T13:49:54.257Z,54.12
2019-05-05T13:52:18.650Z,54.06
2019-05-05T13:54:44.680Z,54.09
2019-05-05T13:57:10.761Z,54.21
2019-05-05T13:59:36.790Z,53.86
2019-05-05T14:02:02.867Z,54.05
2019-05-05T14:04:28.878Z,54.06
2019-05-05T14:06:55.099Z,54.13
2019-05-05T14:09:21.116Z,54.12
2019-05-05T14:11:47.291Z,53.79
2019-05-05T14:14:13.923Z,54.01
2019-05-05T14:16:39.380Z,53.78
2019-05-05T14:19:05.512Z,53.75
2019-05-05T14:21:31.527Z,53.80
2019-05-05T14:23:57.571Z,54.00
2019-05-05T14:26:27.987Z,53.73
2019-05-05T14:28:49.618Z,53.90
2019-05-05T14:31:15.627Z,53.87
2019-05-05T14:33:43.492Z,53.74
2019-05-05T14:36:07.677Z,53.78
2019-05-05T14:38:34.128Z,53.94
2019-05-05T14:40:59.678Z,53.70
2019-05-05T14:43:25.706Z,53.74
2019-05-05T14:45:51.707Z,53.90
2019-05-05T14:48:17.762Z,53.88
2019-05-05T14:50:43.857Z,53.87
2019-05-05T14:53:09.810Z,53.65
2019-05-05T14:55:35.895Z,53.80
2019-05-05T14:58:03.810Z,53.88
2019-05-05T15:00:27.918Z,53.78
2019-05-05T15:02:54.463Z,53.85
2019-05-05T15:05:19.963Z,53.81
2019-05-05T15:07:45.967Z,53.60
2019-05-05T15:10:14.311Z,53.85
2019-05-05T15:12:38.085Z,53.66
2019-05-05T15:15:06.990Z,53.78
2019-05-05T15:17:30.115Z,53.78
2019-05-05T15:19:56.152Z,53.76
2019-05-05T15:22:23.937Z,53.58
2019-05-05T15:24:48.202Z,53.74
2019-05-05T15:27:14.296Z,53.75
2019-05-05T15:29:40.312Z,53.65
2019-05-05T15:32:06.357Z,53.71
2019-05-05T15:34:34.251Z,53.53
2019-05-05T15:36:58.424Z,53.48
2019-05-05T15:39:24.706Z,53.51
2019-05-05T15:41:50.570Z,53.54
2019-05-05T15:44:16.590Z,53.65
2019-05-05T15:46:44.243Z,53.54
2019-05-05T15:49:08.666Z,53.46
2019-05-05T15:51:34.665Z,53.66
2019-05-05T15:54:00.783Z,53.60
2019-05-05T15:56:26.808Z,53.47
2019-05-05T15:58:52.823Z,53.56
2019-05-05T16:01:18.870Z,53.45
2019-05-05T16:03:44.886Z,53.40
2019-05-05T16:06:10.942Z,53.42
2019-05-05T16:08:37.001Z,53.61
2019-05-05T16:11:03.698Z,53.67
2019-05-05T16:13:29.061Z,53.83
2019-05-05T16:15:55.790Z,53.93
2019-05-05T16:18:21.129Z,54.28
2019-05-05T16:20:47.135Z,54.47
2019-05-05T16:23:14.323Z,54.00
2019-05-05T16:25:41.471Z,53.99
2019-05-05T16:28:05.546Z,53.96
2019-05-05T16:30:31.229Z,53.96
2019-05-05T16:32:57.270Z,54.26
2019-05-05T16:35:23.775Z,54.20
2019-05-05T16:37:49.344Z,53.82
2019-05-05T16:40:15.359Z,54.41
2019-05-05T16:42:41.366Z,55.71
2019-05-05T16:45:07.405Z,55.50
2019-05-05T16:47:33.712Z,55.47
2019-05-05T16:49:59.462Z,56.56
2019-05-05T16:52:25.518Z,57.39
2019-05-05T16:54:53.331Z,56.83
2019-05-05T16:57:17.669Z,55.88
2019-05-05T16:59:44.223Z,56.71
2019-05-05T17:02:09.743Z,56.34
2019-05-05T17:04:35.753Z,56.43
2019-05-05T17:07:03.909Z,56.16
2019-05-05T17:09:27.800Z,56.71
2019-05-05T17:11:53.790Z,56.79
2019-05-05T17:14:19.846Z,56.37
2019-05-05T17:16:45.937Z,57.19
2019-05-05T17:19:13.818Z,56.72
2019-05-05T17:21:38.008Z,56.67
2019-05-05T17:24:04.098Z,57.03
2019-05-05T17:26:30.110Z,56.66
2019-05-05T17:28:56.176Z,56.88
2019-05-05T17:31:24.244Z,56.74
2019-05-05T17:33:48.553Z,56.43
2019-05-05T17:36:14.557Z,57.25
2019-05-05T17:38:40.577Z,56.17
2019-05-05T17:41:06.623Z,56.30
2019-05-05T17:43:34.067Z,56.51
2019-05-05T17:45:59.211Z,57.07
2019-05-05T17:48:25.225Z,56.55
2019-05-05T17:50:51.273Z,56.54
2019-05-05T17:53:20.473Z,57.19
2019-05-05T17:55:46.491Z,56.44
2019-05-05T17:58:13.717Z,56.76
2019-05-05T18:00:38.824Z,56.45
2019-05-05T18:03:05.379Z,56.84
2019-05-05T18:05:34.090Z,57.23
2019-05-05T18:07:58.349Z,57.04
2019-05-05T18:10:24.895Z,57.07
2019-05-05T18:12:54.804Z,56.74
2019-05-05T18:15:25.562Z,56.99
2019-05-05T18:17:51.731Z,56.55
2019-05-05T18:20:17.741Z,56.89
2019-05-05T18:22:43.851Z,56.79
2019-05-05T18:27:35.408Z,56.31
2019-05-05T18:30:03.827Z,56.35
2019-05-05T18:32:27.702Z,55.98
2019-05-05T18:34:54.484Z,56.57
2019-05-05T18:37:19.801Z,55.92
2019-05-05T18:39:45.808Z,56.17
2019-05-05T18:42:13.840Z,56.44
2019-05-05T18:44:37.883Z,56.34
2019-05-05T18:47:03.965Z,55.84
2019-05-05T18:49:29.986Z,55.67
2019-05-05T18:51:55.987Z,56.41
2019-05-05T18:54:22.020Z,56.85
2019-05-05T18:56:48.056Z,57.06
2019-05-05T18:59:14.086Z,56.99
2019-05-05T19:01:40.173Z,56.19
2019-05-05T19:04:06.190Z,56.49
2019-05-05T19:06:34.376Z,56.08
2019-05-05T19:08:58.439Z,56.48
2019-05-05T19:11:24.609Z,57.21
2019-05-05T19:13:50.590Z,57.17
2019-05-05T19:16:16.614Z,56.45
2019-05-05T19:18:44.617Z,56.30
2019-05-05T19:21:08.727Z,57.30
2019-05-05T19:23:35.630Z,57.16
2019-05-05T19:26:01.218Z,57.26
2019-05-05T19:28:41.058Z,56.82
2019-05-05T19:30:54.949Z,56.99
2019-05-05T19:33:19.332Z,56.25
2019-05-05T19:35:47.376Z,57.13
2019-05-05T19:38:15.533Z,56.51
2019-05-05T19:40:40.103Z,57.18
2019-05-05T19:43:06.095Z,56.42
2019-05-05T19:45:34.404Z,56.91
2019-05-05T19:47:59.641Z,56.83
2019-05-05T19:50:25.791Z,56.59
2019-05-05T19:53:04.246Z,56.05
2019-05-05T19:55:28.421Z,56.84
2019-05-05T19:57:54.495Z,56.03
2019-05-05T20:00:20.829Z,55.89
2019-05-05T20:03:00.414Z,56.02
2019-05-05T20:05:13.747Z,55.97
2019-05-05T20:07:39.478Z,55.92
2019-05-05T20:10:05.528Z,55.83
2019-05-05T20:12:33.410Z,55.93
2019-05-05T20:14:57.602Z,56.20
2019-05-05T20:17:23.633Z,55.83
2019-05-05T20:19:49.677Z,55.89
2019-05-05T20:22:15.739Z,55.91
2019-05-05T20:24:41.744Z,55.79
2019-05-05T20:27:07.768Z,56.48
2019-05-05T20:29:36.751Z,56.60
2019-05-05T20:31:59.814Z,56.40
2019-05-05T20:34:25.862Z,55.73
2019-05-05T20:36:53.590Z,55.60
2019-05-05T20:39:17.934Z,55.59
2019-05-05T20:41:43.952Z,55.51
2019-05-05T20:44:09.966Z,55.59
2019-05-05T20:46:36.009Z,55.49
2019-05-05T20:49:03.957Z,55.57
2019-05-05T20:51:28.101Z,55.48
2019-05-05T20:53:54.426Z,55.75
2019-05-05T20:56:20.127Z,55.45
2019-05-05T20:58:46.125Z,55.47
2019-05-05T21:01:13.853Z,55.37
2019-05-05T21:03:38.151Z,55.43
2019-05-05T21:06:04.618Z,55.34
2019-05-05T21:08:30.204Z,55.59
2019-05-05T21:10:56.200Z,55.81
2019-05-05T21:13:22.237Z,55.18
2019-05-05T21:15:48.266Z,55.31
2019-05-05T21:18:14.515Z,55.23
2019-05-05T21:20:40.287Z,55.11
2019-05-05T21:23:06.367Z,55.20
2019-05-05T21:25:33.754Z,55.42
2019-05-05T21:27:58.402Z,55.14
2019-05-05T21:30:24.411Z,55.42
2019-05-05T21:32:50.434Z,55.13
2019-05-05T21:35:16.456Z,55.16
2019-05-05T21:37:44.734Z,55.10
2019-05-05T21:40:08.507Z,55.18
2019-05-05T21:42:35.004Z,55.02
2019-05-05T21:45:00.522Z,55.05
2019-05-05T21:47:26.520Z,55.08
2019-05-05T21:49:54.220Z,55.03
2019-05-05T21:52:18.531Z,54.94
2019-05-05T21:54:44.551Z,54.97
2019-05-05T21:57:10.550Z,54.96
2019-05-05T21:59:36.538Z,54.93
2019-05-05T22:02:03.962Z,54.94
2019-05-05T22:04:28.552Z,54.96
2019-05-05T22:06:54.726Z,54.85
2019-05-05T22:09:20.716Z,54.91
2019-05-05T22:11:46.737Z,55.12
2019-05-05T22:14:13.983Z,54.80
2019-05-05T22:16:38.775Z,54.85
2019-05-05T22:19:04.774Z,54.85
2019-05-05T22:21:30.782Z,54.90
2019-05-05T22:23:56.802Z,54.86
2019-05-05T22:26:24.022Z,54.82
2019-05-05T22:28:48.786Z,54.77
2019-05-05T22:31:14.811Z,54.72
2019-05-05T22:33:40.807Z,54.72
2019-05-05T22:36:07.009Z,54.70
2019-05-05T22:38:34.015Z,54.69
2019-05-05T22:40:58.847Z,54.69
2019-05-05T22:43:24.866Z,54.66
2019-05-05T22:45:50.876Z,54.74
2019-05-05T22:48:16.897Z,54.66
2019-05-05T22:50:43.651Z,54.63
2019-05-05T22:53:08.907Z,54.64
2019-05-05T22:55:34.921Z,54.67
2019-05-05T22:58:00.914Z,54.74
2019-05-05T23:00:29.661Z,54.59
2019-05-05T23:02:54.940Z,54.52
2019-05-05T23:05:18.961Z,54.77
2019-05-05T23:07:44.964Z,54.90
2019-05-05T23:10:10.979Z,54.62
2019-05-05T23:12:37.011Z,54.61
2019-05-05T23:15:04.055Z,54.56
2019-05-05T23:17:29.131Z,54.60
2019-05-05T23:19:55.128Z,54.54
2019-05-05T23:22:21.145Z,54.62
2019-05-05T23:24:47.154Z,54.83
2019-05-05T23:27:14.547Z,54.54
2019-05-05T23:29:39.188Z,54.47
2019-05-05T23:32:05.211Z,54.47
2019-05-05T23:34:31.209Z,54.43
2019-05-05T23:36:57.201Z,54.43
2019-05-05T23:39:24.273Z,54.40
2019-05-05T23:41:49.212Z,54.43
2019-05-05T23:44:15.238Z,54.44
2019-05-05T23:46:41.257Z,54.37
2019-05-05T23:49:07.249Z,54.37
2019-05-05T23:51:34.663Z,54.39
2019-05-05T23:53:59.265Z,54.39
2019-05-05T23:56:25.269Z,54.45
2019-05-05T23:58:51.282Z,54.42
